CCA519 ZSPD-RJTT
Flight info
| Callsign | CCA519 |
|---|---|
| Flight time | 1h 55m |
| Altitude | 41100 |
| Route | LAM84D LAMEN A593 SADLI Y590 BEDAR Y591 FUE Y23 ARTIC Y71 XAC |
| Aircraft | A359/H-SDE2E3GHIJ3J4J5LM1ORWXY/LB1D1 |
Departure
| Time | 2026-05-04 13:08 |
|---|---|
| Airport | Shanghai Pudong International Airport (ZSPD) |
Arrival
| Time | 2026-05-04 15:03 |
|---|---|
| Airport | Tokyo Haneda International Airport (RJTT) |
| Time | Latitude | Longitude | Altitude | Speed | Heading |
|---|---|---|---|---|---|
| 2026-05-04 12:43 | 31.15418 | 121.80711 | 29 ft | 0 kts | 252° |
| 2026-05-04 13:00 | 31.15423 | 121.80730 | 28 ft | 4 kts | 252° |
| 2026-05-04 13:00 | 31.15431 | 121.80759 | 28 ft | 3 kts | 252° |
| 2026-05-04 13:01 | 31.15437 | 121.80784 | 26 ft | 4 kts | 276° |
| 2026-05-04 13:01 | 31.15427 | 121.80808 | 27 ft | 4 kts | 331° |
| 2026-05-04 13:01 | 31.15403 | 121.80819 | 27 ft | 4 kts | 342° |
| 2026-05-04 13:01 | 31.15390 | 121.80824 | 28 ft | 0 kts | 342° |
| 2026-05-04 13:04 | 31.15391 | 121.80823 | 28 ft | 1 kts | 342° |
| 2026-05-04 13:04 | 31.15416 | 121.80814 | 26 ft | 7 kts | 342° |
| 2026-05-04 13:04 | 31.15487 | 121.80787 | 29 ft | 14 kts | 342° |
| 2026-05-04 13:04 | 31.15583 | 121.80751 | 29 ft | 13 kts | 342° |
| 2026-05-04 13:05 | 31.15648 | 121.80737 | 29 ft | 10 kts | 12° |
| 2026-05-04 13:05 | 31.15687 | 121.80802 | 29 ft | 11 kts | 74° |
| 2026-05-04 13:05 | 31.15712 | 121.80902 | 29 ft | 14 kts | 72° |
| 2026-05-04 13:05 | 31.15743 | 121.81014 | 28 ft | 15 kts | 72° |
| 2026-05-04 13:06 | 31.15766 | 121.81098 | 28 ft | 10 kts | 72° |
| 2026-05-04 13:06 | 31.15787 | 121.81178 | 28 ft | 9 kts | 73° |
| 2026-05-04 13:06 | 31.15767 | 121.81224 | 28 ft | 7 kts | 137° |
| 2026-05-04 13:06 | 31.15726 | 121.81245 | 28 ft | 0 kts | 161° |
| 2026-05-04 13:07 | 31.15577 | 121.81302 | 28 ft | 59 kts | 162° |
| 2026-05-04 13:07 | 31.14956 | 121.81537 | 28 ft | 126 kts | 162° |
| 2026-05-04 13:07 | 31.13941 | 121.81914 | 205 ft | 165 kts | 161° |
| 2026-05-04 13:08 | 31.12880 | 121.82326 | 1076 ft | 157 kts | 163° |
| 2026-05-04 13:08 | 31.11881 | 121.82804 | 1930 ft | 157 kts | 156° |
| 2026-05-04 13:08 | 31.10936 | 121.83489 | 2534 ft | 163 kts | 150° |
| 2026-05-04 13:08 | 31.09944 | 121.84263 | 2924 ft | 182 kts | 150° |
| 2026-05-04 13:09 | 31.08837 | 121.85104 | 3003 ft | 194 kts | 150° |
| 2026-05-04 13:09 | 31.07699 | 121.85955 | 2998 ft | 195 kts | 150° |
| 2026-05-04 13:09 | 31.06557 | 121.86800 | 3058 ft | 191 kts | 151° |
| 2026-05-04 13:09 | 31.05513 | 121.87570 | 3439 ft | 168 kts | 151° |
| 2026-05-04 13:10 | 31.04534 | 121.88286 | 3716 ft | 175 kts | 151° |
| 2026-05-04 13:10 | 31.03427 | 121.89080 | 3984 ft | 199 kts | 151° |
| 2026-05-04 13:10 | 31.02180 | 121.89979 | 4303 ft | 221 kts | 150° |
| 2026-05-04 13:10 | 31.00875 | 121.91055 | 4727 ft | 241 kts | 142° |
| 2026-05-04 13:11 | 30.99541 | 121.92415 | 4922 ft | 267 kts | 139° |
| 2026-05-04 13:11 | 30.98144 | 121.93910 | 4939 ft | 275 kts | 139° |
| 2026-05-04 13:11 | 30.96735 | 121.95424 | 4938 ft | 276 kts | 139° |
| 2026-05-04 13:11 | 30.95323 | 121.96935 | 4952 ft | 275 kts | 139° |
| 2026-05-04 13:12 | 30.94070 | 121.98631 | 4950 ft | 278 kts | 121° |
| 2026-05-04 13:12 | 30.93520 | 122.00764 | 4986 ft | 277 kts | 91° |
| 2026-05-04 13:12 | 30.93840 | 122.02977 | 5316 ft | 279 kts | 72° |
| 2026-05-04 13:12 | 30.94444 | 122.05128 | 6203 ft | 279 kts | 69° |
| 2026-05-04 13:13 | 30.95055 | 122.07263 | 7190 ft | 278 kts | 69° |
| 2026-05-04 13:13 | 30.95665 | 122.09413 | 8104 ft | 281 kts | 69° |
| 2026-05-04 13:13 | 30.96269 | 122.11560 | 8982 ft | 285 kts | 69° |
| 2026-05-04 13:13 | 30.96888 | 122.13772 | 9873 ft | 289 kts | 69° |
| 2026-05-04 13:14 | 30.97521 | 122.16039 | 10522 ft | 303 kts | 69° |
| 2026-05-04 13:14 | 30.98199 | 122.18463 | 10891 ft | 325 kts | 69° |
| 2026-05-04 13:14 | 30.98919 | 122.21050 | 11245 ft | 346 kts | 70° |
| 2026-05-04 13:14 | 30.99660 | 122.23789 | 11704 ft | 361 kts | 72° |
| 2026-05-04 13:15 | 31.00024 | 122.26723 | 12386 ft | 371 kts | 86° |
| 2026-05-04 13:15 | 31.00052 | 122.29757 | 13133 ft | 377 kts | 89° |
| 2026-05-04 13:15 | 31.00036 | 122.32831 | 13881 ft | 382 kts | 89° |
| 2026-05-04 13:15 | 31.00023 | 122.35954 | 14523 ft | 388 kts | 89° |
| 2026-05-04 13:16 | 31.00014 | 122.39125 | 15131 ft | 395 kts | 89° |
| 2026-05-04 13:16 | 31.00008 | 122.42352 | 15784 ft | 400 kts | 89° |
| 2026-05-04 13:16 | 31.00008 | 122.45623 | 16427 ft | 406 kts | 89° |
| 2026-05-04 13:16 | 31.00014 | 122.48940 | 17082 ft | 412 kts | 90° |
| 2026-05-04 13:17 | 31.00019 | 122.52312 | 17713 ft | 418 kts | 90° |
| 2026-05-04 13:17 | 31.00024 | 122.55723 | 18361 ft | 423 kts | 90° |
| 2026-05-04 13:17 | 31.00027 | 122.59133 | 18891 ft | 430 kts | 90° |
| 2026-05-04 13:17 | 31.00030 | 122.62648 | 19397 ft | 437 kts | 90° |
| 2026-05-04 13:18 | 31.00032 | 122.66218 | 19899 ft | 444 kts | 90° |
| 2026-05-04 13:18 | 31.00033 | 122.69850 | 20421 ft | 451 kts | 90° |
| 2026-05-04 13:18 | 31.00033 | 122.73531 | 20950 ft | 458 kts | 90° |
| 2026-05-04 13:18 | 31.00031 | 122.77271 | 21481 ft | 465 kts | 90° |
| 2026-05-04 13:19 | 31.00029 | 122.81058 | 22016 ft | 471 kts | 90° |
| 2026-05-04 13:19 | 31.00026 | 122.84912 | 22542 ft | 478 kts | 90° |
| 2026-05-04 13:19 | 31.00021 | 122.88817 | 23062 ft | 485 kts | 90° |
| 2026-05-04 13:19 | 31.00018 | 122.92779 | 23509 ft | 492 kts | 90° |
| 2026-05-04 13:20 | 31.00248 | 122.96788 | 23954 ft | 499 kts | 80° |
| 2026-05-04 13:20 | 31.01125 | 123.00708 | 24428 ft | 501 kts | 66° |
| 2026-05-04 13:20 | 31.02688 | 123.04328 | 24897 ft | 500 kts | 53° |
| 2026-05-04 13:20 | 31.04659 | 123.07679 | 25384 ft | 502 kts | 50° |
| 2026-05-04 13:21 | 31.06716 | 123.10998 | 25829 ft | 507 kts | 50° |
| 2026-05-04 13:21 | 31.08790 | 123.14344 | 26343 ft | 511 kts | 50° |
| 2026-05-04 13:21 | 31.10845 | 123.17676 | 26864 ft | 514 kts | 50° |
| 2026-05-04 13:21 | 31.12941 | 123.21088 | 27239 ft | 520 kts | 50° |
| 2026-05-04 13:22 | 31.15051 | 123.24530 | 27720 ft | 525 kts | 50° |
| 2026-05-04 13:22 | 31.17185 | 123.28019 | 28176 ft | 529 kts | 51° |
| 2026-05-04 13:22 | 31.19328 | 123.31528 | 28602 ft | 533 kts | 51° |
| 2026-05-04 13:22 | 31.21494 | 123.35078 | 29038 ft | 538 kts | 51° |
| 2026-05-04 13:23 | 31.23671 | 123.38650 | 29484 ft | 542 kts | 51° |
| 2026-05-04 13:23 | 31.25866 | 123.42257 | 30039 ft | 544 kts | 51° |
| 2026-05-04 13:23 | 31.28057 | 123.45860 | 30480 ft | 546 kts | 51° |
| 2026-05-04 13:23 | 31.30270 | 123.49501 | 30798 ft | 551 kts | 51° |
| 2026-05-04 13:24 | 31.32499 | 123.53173 | 31121 ft | 555 kts | 51° |
| 2026-05-04 13:24 | 31.34745 | 123.56870 | 31443 ft | 558 kts | 50° |
| 2026-05-04 13:24 | 31.37014 | 123.60577 | 31751 ft | 562 kts | 50° |
| 2026-05-04 13:25 | 31.41594 | 123.68060 | 32404 ft | 568 kts | 50° |
| 2026-05-04 13:25 | 31.43897 | 123.71832 | 32649 ft | 572 kts | 50° |
| 2026-05-04 13:25 | 31.46214 | 123.75632 | 32917 ft | 575 kts | 51° |
| 2026-05-04 13:25 | 31.48541 | 123.79452 | 33190 ft | 578 kts | 51° |
| 2026-05-04 13:26 | 31.50878 | 123.83293 | 33535 ft | 579 kts | 51° |
| 2026-05-04 13:26 | 31.53182 | 123.87086 | 33910 ft | 579 kts | 51° |
| 2026-05-04 13:26 | 31.55517 | 123.90933 | 34264 ft | 579 kts | 51° |
| 2026-05-04 13:26 | 31.57851 | 123.94783 | 34578 ft | 579 kts | 51° |
| 2026-05-04 13:27 | 31.60047 | 123.98783 | 34731 ft | 586 kts | 59° |
| 2026-05-04 13:27 | 31.61666 | 124.03181 | 34989 ft | 590 kts | 72° |
| 2026-05-04 13:27 | 31.62869 | 124.07782 | 35318 ft | 590 kts | 73° |
| 2026-05-04 13:27 | 31.63947 | 124.12421 | 35620 ft | 590 kts | 75° |
| 2026-05-04 13:28 | 31.64963 | 124.17091 | 35904 ft | 590 kts | 76° |
| 2026-05-04 13:28 | 31.65957 | 124.21767 | 36176 ft | 590 kts | 76° |
| 2026-05-04 13:28 | 31.66953 | 124.26440 | 36352 ft | 592 kts | 76° |
| 2026-05-04 13:28 | 31.67965 | 124.31133 | 36692 ft | 591 kts | 75° |
| 2026-05-04 13:29 | 31.68986 | 124.35813 | 37072 ft | 589 kts | 75° |
| 2026-05-04 13:29 | 31.70009 | 124.40466 | 37329 ft | 589 kts | 75° |
| 2026-05-04 13:29 | 31.71038 | 124.45131 | 37576 ft | 590 kts | 75° |
| 2026-05-04 13:29 | 31.72069 | 124.49799 | 37788 ft | 591 kts | 75° |
| 2026-05-04 13:30 | 31.73100 | 124.54476 | 37951 ft | 593 kts | 75° |
| 2026-05-04 13:30 | 31.74132 | 124.59170 | 38189 ft | 593 kts | 75° |
| 2026-05-04 13:30 | 31.75160 | 124.63856 | 38454 ft | 593 kts | 75° |
| 2026-05-04 13:30 | 31.76186 | 124.68548 | 38689 ft | 593 kts | 75° |
| 2026-05-04 13:31 | 31.77209 | 124.73236 | 38948 ft | 592 kts | 75° |
| 2026-05-04 13:31 | 31.78228 | 124.77917 | 39144 ft | 592 kts | 75° |
| 2026-05-04 13:31 | 31.80263 | 124.87293 | 39178 ft | 591 kts | 75° |
| 2026-05-04 13:32 | 31.82129 | 124.96645 | 39178 ft | 591 kts | 83° |
| 2026-05-04 13:32 | 31.82374 | 125.01448 | 39169 ft | 587 kts | 95° |
| 2026-05-04 13:32 | 31.81967 | 125.06207 | 39176 ft | 584 kts | 102° |
| 2026-05-04 13:33 | 31.80590 | 125.15630 | 39180 ft | 584 kts | 105° |
| 2026-05-04 13:33 | 31.78991 | 125.24984 | 39152 ft | 584 kts | 106° |
| 2026-05-04 13:34 | 31.77389 | 125.34356 | 39187 ft | 584 kts | 106° |
| 2026-05-04 13:34 | 31.75820 | 125.43737 | 39187 ft | 585 kts | 106° |
| 2026-05-04 13:35 | 31.73492 | 125.57754 | 39184 ft | 584 kts | 106° |
| 2026-05-04 13:36 | 31.72753 | 125.67299 | 39177 ft | 592 kts | 87° |
| 2026-05-04 13:36 | 31.74274 | 125.76813 | 39167 ft | 594 kts | 76° |
| 2026-05-04 13:37 | 31.76357 | 125.86239 | 39187 ft | 596 kts | 75° |
| 2026-05-04 13:37 | 31.78515 | 125.95641 | 39170 ft | 596 kts | 75° |
| 2026-05-04 13:38 | 31.80618 | 126.05068 | 39206 ft | 596 kts | 75° |
| 2026-05-04 13:38 | 31.82673 | 126.14480 | 39179 ft | 593 kts | 75° |
| 2026-05-04 13:39 | 31.84710 | 126.23887 | 39177 ft | 593 kts | 75° |
| 2026-05-04 13:39 | 31.86743 | 126.33303 | 39175 ft | 595 kts | 76° |
| 2026-05-04 13:40 | 31.88778 | 126.42754 | 39172 ft | 595 kts | 76° |
| 2026-05-04 13:40 | 31.90799 | 126.52137 | 39157 ft | 594 kts | 75° |
| 2026-05-04 13:41 | 31.92879 | 126.61561 | 39168 ft | 595 kts | 75° |
| 2026-05-04 13:41 | 31.94970 | 126.70992 | 39169 ft | 595 kts | 75° |
| 2026-05-04 13:42 | 31.97733 | 126.83563 | 39217 ft | 597 kts | 76° |
| 2026-05-04 13:42 | 31.99796 | 126.93021 | 39173 ft | 594 kts | 76° |
| 2026-05-04 13:43 | 32.01846 | 127.02459 | 39159 ft | 594 kts | 76° |
| 2026-05-04 13:43 | 32.04038 | 127.11849 | 39168 ft | 595 kts | 68° |
| 2026-05-04 13:44 | 32.07179 | 127.20796 | 39194 ft | 594 kts | 65° |
| 2026-05-04 13:44 | 32.10525 | 127.29700 | 39165 ft | 594 kts | 64° |
| 2026-05-04 13:45 | 32.13910 | 127.38599 | 39158 ft | 594 kts | 64° |
| 2026-05-04 13:45 | 32.17275 | 127.47521 | 39162 ft | 594 kts | 64° |
| 2026-05-04 13:46 | 32.20617 | 127.56460 | 39172 ft | 594 kts | 64° |
| 2026-05-04 13:46 | 32.23945 | 127.65394 | 39161 ft | 593 kts | 65° |
| 2026-05-04 13:47 | 32.27243 | 127.74265 | 39148 ft | 593 kts | 65° |
| 2026-05-04 13:47 | 32.30567 | 127.83224 | 39182 ft | 595 kts | 65° |
| 2026-05-04 13:48 | 32.33879 | 127.92177 | 39150 ft | 594 kts | 65° |
| 2026-05-04 13:48 | 32.37185 | 128.01135 | 39146 ft | 595 kts | 65° |
| 2026-05-04 13:49 | 32.40491 | 128.10118 | 39157 ft | 595 kts | 65° |
| 2026-05-04 13:49 | 32.43775 | 128.19064 | 39153 ft | 595 kts | 65° |
| 2026-05-04 13:50 | 32.47073 | 128.28072 | 39154 ft | 597 kts | 65° |
| 2026-05-04 13:50 | 32.50373 | 128.37112 | 39156 ft | 598 kts | 65° |
| 2026-05-04 13:51 | 32.53667 | 128.46160 | 39164 ft | 596 kts | 65° |
| 2026-05-04 13:51 | 32.56939 | 128.55170 | 39159 ft | 595 kts | 65° |
| 2026-05-04 13:52 | 32.61835 | 128.68700 | 39148 ft | 595 kts | 65° |
| 2026-05-04 13:53 | 32.65093 | 128.77736 | 39165 ft | 595 kts | 65° |
| 2026-05-04 13:53 | 32.67738 | 128.87039 | 39144 ft | 595 kts | 75° |
| 2026-05-04 13:54 | 32.70764 | 129.01356 | 39153 ft | 597 kts | 77° |
| 2026-05-04 13:55 | 32.73647 | 129.15712 | 39139 ft | 595 kts | 77° |
| 2026-05-04 13:55 | 32.76537 | 129.30005 | 39151 ft | 596 kts | 77° |
| 2026-05-04 13:56 | 32.78472 | 129.39580 | 39164 ft | 597 kts | 77° |
| 2026-05-04 13:57 | 32.81364 | 129.53981 | 39133 ft | 596 kts | 78° |
| 2026-05-04 13:58 | 32.85198 | 129.73222 | 39115 ft | 598 kts | 78° |
| 2026-05-04 13:58 | 32.88000 | 129.87606 | 39101 ft | 597 kts | 78° |
| 2026-05-04 13:59 | 32.89862 | 129.97244 | 39112 ft | 598 kts | 78° |
| 2026-05-04 14:00 | 32.92650 | 130.11716 | 39183 ft | 599 kts | 78° |
| 2026-05-04 14:00 | 32.95425 | 130.26181 | 39113 ft | 597 kts | 79° |
| 2026-05-04 14:01 | 32.97262 | 130.35825 | 39137 ft | 598 kts | 79° |
| 2026-05-04 14:02 | 32.99999 | 130.50266 | 39134 ft | 598 kts | 79° |
| 2026-05-04 14:02 | 33.01821 | 130.59935 | 39137 ft | 598 kts | 79° |
| 2026-05-04 14:03 | 33.03634 | 130.69603 | 39138 ft | 598 kts | 79° |
| 2026-05-04 14:03 | 33.05441 | 130.79276 | 39143 ft | 598 kts | 79° |
| 2026-05-04 14:04 | 33.08134 | 130.93787 | 39139 ft | 596 kts | 79° |
| 2026-05-04 14:04 | 33.09921 | 131.03456 | 39148 ft | 597 kts | 79° |
| 2026-05-04 14:05 | 33.12586 | 131.17984 | 39158 ft | 599 kts | 79° |
| 2026-05-04 14:06 | 33.14360 | 131.27695 | 39145 ft | 599 kts | 79° |
| 2026-05-04 14:06 | 33.16127 | 131.37400 | 39136 ft | 599 kts | 79° |
| 2026-05-04 14:07 | 33.17897 | 131.47158 | 39136 ft | 602 kts | 79° |
| 2026-05-04 14:07 | 33.19650 | 131.56942 | 39111 ft | 603 kts | 79° |
| 2026-05-04 14:08 | 33.21405 | 131.66746 | 39107 ft | 604 kts | 79° |
| 2026-05-04 14:08 | 33.24042 | 131.76216 | 39113 ft | 605 kts | 68° |
| 2026-05-04 14:09 | 33.28758 | 131.90229 | 39112 ft | 605 kts | 67° |
| 2026-05-04 14:10 | 33.33535 | 132.04192 | 39113 ft | 606 kts | 67° |
| 2026-05-04 14:10 | 33.36694 | 132.13544 | 39120 ft | 605 kts | 68° |
| 2026-05-04 14:11 | 33.39831 | 132.22886 | 39104 ft | 605 kts | 68° |
| 2026-05-04 14:11 | 33.44511 | 132.36880 | 39130 ft | 606 kts | 68° |
| 2026-05-04 14:12 | 33.47634 | 132.46243 | 39126 ft | 606 kts | 68° |
| 2026-05-04 14:13 | 33.52319 | 132.60331 | 39180 ft | 607 kts | 68° |
| 2026-05-04 14:13 | 33.55434 | 132.69738 | 39123 ft | 607 kts | 68° |
| 2026-05-04 14:14 | 33.58541 | 132.79133 | 39130 ft | 606 kts | 68° |
| 2026-05-04 14:14 | 33.63184 | 132.93254 | 39130 ft | 606 kts | 69° |
| 2026-05-04 14:15 | 33.68215 | 133.12524 | 39127 ft | 607 kts | 75° |
| 2026-05-04 14:16 | 33.71697 | 133.27131 | 39106 ft | 607 kts | 75° |
| 2026-05-04 14:17 | 33.75192 | 133.41795 | 39134 ft | 609 kts | 75° |
| 2026-05-04 14:18 | 33.78681 | 133.56465 | 39114 ft | 608 kts | 75° |
| 2026-05-04 14:19 | 33.83294 | 133.75965 | 39116 ft | 609 kts | 76° |
| 2026-05-04 14:19 | 33.85587 | 133.85770 | 39097 ft | 609 kts | 76° |
| 2026-05-04 14:20 | 33.87886 | 133.95607 | 39117 ft | 610 kts | 76° |
| 2026-05-04 14:20 | 33.90180 | 134.05437 | 39103 ft | 610 kts | 76° |
| 2026-05-04 14:21 | 33.93609 | 134.20210 | 39103 ft | 610 kts | 76° |
| 2026-05-04 14:21 | 33.95880 | 134.30053 | 39109 ft | 611 kts | 76° |
| 2026-05-04 14:22 | 33.98146 | 134.39929 | 39109 ft | 612 kts | 76° |
| 2026-05-04 14:22 | 34.00407 | 134.49827 | 39100 ft | 612 kts | 76° |
| 2026-05-04 14:23 | 34.03359 | 134.62792 | 39062 ft | 612 kts | 76° |
| 2026-05-04 14:24 | 34.05604 | 134.72694 | 39096 ft | 612 kts | 76° |
| 2026-05-04 14:24 | 34.07841 | 134.82604 | 39133 ft | 612 kts | 76° |
| 2026-05-04 14:25 | 34.10070 | 134.92517 | 39097 ft | 612 kts | 76° |
| 2026-05-04 14:25 | 34.13400 | 135.07387 | 39086 ft | 611 kts | 77° |
| 2026-05-04 14:26 | 34.15605 | 135.17303 | 39091 ft | 611 kts | 77° |
| 2026-05-04 14:26 | 34.17797 | 135.27211 | 39092 ft | 611 kts | 77° |
| 2026-05-04 14:27 | 34.19981 | 135.37112 | 39091 ft | 611 kts | 77° |
| 2026-05-04 14:27 | 34.22162 | 135.47039 | 39090 ft | 611 kts | 77° |
| 2026-05-04 14:28 | 34.23968 | 135.55287 | 39085 ft | 611 kts | 77° |
| 2026-05-04 14:28 | 34.26495 | 135.66842 | 39100 ft | 612 kts | 78° |
| 2026-05-04 14:29 | 34.30793 | 135.86746 | 39077 ft | 612 kts | 78° |
| 2026-05-04 14:30 | 34.32588 | 135.95083 | 39073 ft | 611 kts | 78° |
| 2026-05-04 14:31 | 34.35787 | 136.09984 | 39059 ft | 612 kts | 78° |
| 2026-05-04 14:32 | 34.40031 | 136.29973 | 39052 ft | 613 kts | 78° |
| 2026-05-04 14:32 | 34.42142 | 136.39976 | 39043 ft | 613 kts | 78° |
| 2026-05-04 14:33 | 34.44226 | 136.49926 | 39036 ft | 613 kts | 78° |
| 2026-05-04 14:33 | 34.46323 | 136.59953 | 39027 ft | 614 kts | 79° |
| 2026-05-04 14:34 | 34.48415 | 136.69980 | 39025 ft | 613 kts | 79° |
| 2026-05-04 14:34 | 34.50496 | 136.80009 | 39016 ft | 613 kts | 79° |
| 2026-05-04 14:35 | 34.52566 | 136.90037 | 39008 ft | 613 kts | 79° |
| 2026-05-04 14:35 | 34.53820 | 137.00177 | 39005 ft | 603 kts | 93° |
| 2026-05-04 14:36 | 34.54060 | 137.10310 | 39008 ft | 600 kts | 96° |
| 2026-05-04 14:36 | 34.54106 | 137.20438 | 38999 ft | 600 kts | 96° |
| 2026-05-04 14:37 | 34.54127 | 137.30481 | 38980 ft | 600 kts | 96° |
| 2026-05-04 14:37 | 34.54169 | 137.40609 | 38970 ft | 600 kts | 96° |
| 2026-05-04 14:38 | 34.54218 | 137.50722 | 38962 ft | 599 kts | 96° |
| 2026-05-04 14:38 | 34.54261 | 137.60830 | 38965 ft | 599 kts | 96° |
| 2026-05-04 14:39 | 34.54298 | 137.70942 | 38912 ft | 599 kts | 96° |
| 2026-05-04 14:39 | 34.54310 | 137.75988 | 38680 ft | 599 kts | 96° |
| 2026-05-04 14:39 | 34.54319 | 137.81045 | 38428 ft | 599 kts | 96° |
| 2026-05-04 14:40 | 34.54330 | 137.91165 | 37883 ft | 601 kts | 96° |
| 2026-05-04 14:40 | 34.54333 | 137.96232 | 37429 ft | 599 kts | 97° |
| 2026-05-04 14:40 | 34.54336 | 138.01230 | 36704 ft | 597 kts | 97° |
| 2026-05-04 14:40 | 34.54340 | 138.06263 | 36044 ft | 596 kts | 97° |
| 2026-05-04 14:41 | 34.54338 | 138.11280 | 35355 ft | 595 kts | 97° |
| 2026-05-04 14:41 | 34.54327 | 138.16297 | 34623 ft | 595 kts | 98° |
| 2026-05-04 14:41 | 34.54291 | 138.26347 | 32908 ft | 589 kts | 98° |
| 2026-05-04 14:42 | 34.54501 | 138.36225 | 31228 ft | 595 kts | 87° |
| 2026-05-04 14:42 | 34.55528 | 138.41135 | 30316 ft | 606 kts | 72° |
| 2026-05-04 14:42 | 34.57148 | 138.45897 | 29398 ft | 610 kts | 67° |
| 2026-05-04 14:43 | 34.58969 | 138.50530 | 28760 ft | 605 kts | 64° |
| 2026-05-04 14:43 | 34.60876 | 138.55064 | 28104 ft | 600 kts | 63° |
| 2026-05-04 14:43 | 34.62778 | 138.59481 | 27482 ft | 596 kts | 63° |
| 2026-05-04 14:43 | 34.64690 | 138.63928 | 26839 ft | 592 kts | 63° |
| 2026-05-04 14:44 | 34.66571 | 138.68363 | 26212 ft | 588 kts | 63° |
| 2026-05-04 14:44 | 34.68416 | 138.72773 | 25574 ft | 585 kts | 63° |
| 2026-05-04 14:44 | 34.70189 | 138.77216 | 24929 ft | 581 kts | 69° |
| 2026-05-04 14:44 | 34.71261 | 138.81911 | 24319 ft | 571 kts | 85° |
| 2026-05-04 14:45 | 34.71672 | 138.86658 | 23699 ft | 561 kts | 91° |
| 2026-05-04 14:45 | 34.71787 | 138.91361 | 23051 ft | 552 kts | 95° |
| 2026-05-04 14:45 | 34.71750 | 138.95989 | 22451 ft | 544 kts | 96° |
| 2026-05-04 14:45 | 34.71658 | 139.00567 | 21834 ft | 535 kts | 96° |
| 2026-05-04 14:46 | 34.71574 | 139.05003 | 21252 ft | 515 kts | 96° |
| 2026-05-04 14:46 | 34.71508 | 139.09325 | 20682 ft | 509 kts | 96° |
| 2026-05-04 14:46 | 34.71456 | 139.13605 | 20100 ft | 504 kts | 95° |
| 2026-05-04 14:46 | 34.71415 | 139.17841 | 19515 ft | 498 kts | 95° |
| 2026-05-04 14:47 | 34.71380 | 139.22037 | 18924 ft | 493 kts | 94° |
| 2026-05-04 14:47 | 34.71349 | 139.26108 | 18364 ft | 480 kts | 94° |
| 2026-05-04 14:47 | 34.71319 | 139.30143 | 17748 ft | 475 kts | 94° |
| 2026-05-04 14:47 | 34.71288 | 139.34133 | 17124 ft | 469 kts | 94° |
| 2026-05-04 14:48 | 34.71271 | 139.38089 | 16582 ft | 465 kts | 92° |
| 2026-05-04 14:48 | 34.71737 | 139.41974 | 16014 ft | 465 kts | 72° |
| 2026-05-04 14:48 | 34.72846 | 139.45614 | 15490 ft | 456 kts | 65° |
| 2026-05-04 14:48 | 34.74410 | 139.48900 | 14306 ft | 447 kts | 49° |
| 2026-05-04 14:49 | 34.76683 | 139.51454 | 13219 ft | 442 kts | 29° |
| 2026-05-04 14:49 | 34.79258 | 139.53366 | 12328 ft | 423 kts | 24° |
| 2026-05-04 14:49 | 34.81766 | 139.55080 | 11693 ft | 409 kts | 24° |
| 2026-05-04 14:49 | 34.84248 | 139.56753 | 11076 ft | 404 kts | 24° |
| 2026-05-04 14:50 | 34.86677 | 139.58391 | 10706 ft | 392 kts | 24° |
| 2026-05-04 14:50 | 34.89004 | 139.59968 | 10572 ft | 374 kts | 24° |
| 2026-05-04 14:50 | 34.91223 | 139.61471 | 10455 ft | 357 kts | 24° |
| 2026-05-04 14:50 | 34.93351 | 139.62913 | 10314 ft | 342 kts | 24° |
| 2026-05-04 14:51 | 34.95386 | 139.64291 | 10194 ft | 328 kts | 23° |
| 2026-05-04 14:51 | 34.97342 | 139.65497 | 10020 ft | 312 kts | 15° |
| 2026-05-04 14:51 | 34.99352 | 139.66357 | 9543 ft | 300 kts | 12° |
| 2026-05-04 14:51 | 35.01339 | 139.67106 | 9137 ft | 299 kts | 11° |
| 2026-05-04 14:52 | 35.03322 | 139.67826 | 8791 ft | 295 kts | 12° |
| 2026-05-04 14:52 | 35.05279 | 139.68527 | 8461 ft | 292 kts | 12° |
| 2026-05-04 14:52 | 35.07223 | 139.69218 | 8136 ft | 290 kts | 13° |
| 2026-05-04 14:52 | 35.09154 | 139.69901 | 7808 ft | 288 kts | 13° |
| 2026-05-04 14:53 | 35.11078 | 139.70582 | 7475 ft | 286 kts | 13° |
| 2026-05-04 14:53 | 35.12981 | 139.71255 | 7148 ft | 284 kts | 13° |
| 2026-05-04 14:53 | 35.14878 | 139.71925 | 6833 ft | 282 kts | 14° |
| 2026-05-04 14:53 | 35.16728 | 139.72581 | 6522 ft | 280 kts | 13° |
| 2026-05-04 14:54 | 35.18600 | 139.73241 | 6204 ft | 278 kts | 13° |
| 2026-05-04 14:54 | 35.20447 | 139.73892 | 5887 ft | 275 kts | 14° |
| 2026-05-04 14:54 | 35.22277 | 139.74539 | 5565 ft | 272 kts | 14° |
| 2026-05-04 14:54 | 35.24081 | 139.75190 | 5266 ft | 268 kts | 13° |
| 2026-05-04 14:55 | 35.25864 | 139.75819 | 4960 ft | 265 kts | 13° |
| 2026-05-04 14:55 | 35.27629 | 139.76441 | 4668 ft | 262 kts | 13° |
| 2026-05-04 14:55 | 35.29371 | 139.77058 | 4364 ft | 258 kts | 11° |
| 2026-05-04 14:55 | 35.31062 | 139.77696 | 4082 ft | 253 kts | 15° |
| 2026-05-04 14:56 | 35.32592 | 139.78720 | 3839 ft | 251 kts | 28° |
| 2026-05-04 14:56 | 35.34003 | 139.79956 | 3260 ft | 250 kts | 31° |
| 2026-05-04 14:56 | 35.35367 | 139.81204 | 3042 ft | 234 kts | 31° |
| 2026-05-04 14:56 | 35.36633 | 139.82368 | 2939 ft | 222 kts | 30° |
| 2026-05-04 14:57 | 35.37813 | 139.83450 | 2840 ft | 203 kts | 29° |
| 2026-05-04 14:57 | 35.38902 | 139.84444 | 2751 ft | 188 kts | 28° |
| 2026-05-04 14:57 | 35.39917 | 139.85366 | 2693 ft | 172 kts | 28° |
| 2026-05-04 14:57 | 35.40821 | 139.86184 | 2579 ft | 153 kts | 26° |
| 2026-05-04 14:58 | 35.41710 | 139.86755 | 2523 ft | 139 kts | 9° |
| 2026-05-04 14:58 | 35.42630 | 139.86900 | 2479 ft | 128 kts | 354° |
| 2026-05-04 14:58 | 35.43494 | 139.86889 | 2332 ft | 120 kts | 351° |
| 2026-05-04 14:58 | 35.44302 | 139.86777 | 2182 ft | 114 kts | 346° |
| 2026-05-04 14:59 | 35.45053 | 139.86560 | 2049 ft | 108 kts | 340° |
| 2026-05-04 14:59 | 35.45736 | 139.86220 | 1925 ft | 105 kts | 335° |
| 2026-05-04 14:59 | 35.47032 | 139.85410 | 1651 ft | 104 kts | 332° |
| 2026-05-04 15:00 | 35.47671 | 139.84981 | 1494 ft | 106 kts | 333° |
| 2026-05-04 15:00 | 35.48323 | 139.84521 | 1350 ft | 110 kts | 331° |
| 2026-05-04 15:00 | 35.48988 | 139.84047 | 1215 ft | 111 kts | 331° |
| 2026-05-04 15:01 | 35.50333 | 139.83096 | 907 ft | 113 kts | 329° |
| 2026-05-04 15:01 | 35.51020 | 139.82607 | 769 ft | 116 kts | 331° |
| 2026-05-04 15:01 | 35.51729 | 139.82105 | 631 ft | 119 kts | 329° |
| 2026-05-04 15:01 | 35.52448 | 139.81572 | 462 ft | 121 kts | 331° |
| 2026-05-04 15:02 | 35.53184 | 139.81071 | 306 ft | 121 kts | 333° |
| 2026-05-04 15:02 | 35.53913 | 139.80545 | 151 ft | 121 kts | 329° |
| 2026-05-04 15:02 | 35.54628 | 139.80033 | 33 ft | 114 kts | 330° |
| 2026-05-04 15:02 | 35.55198 | 139.79641 | 30 ft | 71 kts | 330° |
| 2026-05-04 15:03 | 35.55486 | 139.79438 | 30 ft | 26 kts | 330° |
| 2026-05-04 15:03 | 35.55632 | 139.79332 | 30 ft | 22 kts | 323° |
| 2026-05-04 15:03 | 35.55733 | 139.79212 | 30 ft | 20 kts | 310° |
| 2026-05-04 15:03 | 35.55785 | 139.79117 | 29 ft | 0 kts | 300° |
| 2026-05-04 15:04 | 35.55788 | 139.79112 | 29 ft | 4 kts | 300° |
| 2026-05-04 15:04 | 35.55821 | 139.79041 | 29 ft | 9 kts | 300° |
| 2026-05-04 15:04 | 35.55858 | 139.78964 | 29 ft | 13 kts | 301° |
| 2026-05-04 15:04 | 35.55919 | 139.78878 | 29 ft | 17 kts | 324° |
| 2026-05-04 15:05 | 35.56035 | 139.78794 | 28 ft | 15 kts | 330° |
| 2026-05-04 15:05 | 35.56153 | 139.78711 | 29 ft | 24 kts | 330° |
| 2026-05-04 15:05 | 35.56278 | 139.78622 | 29 ft | 18 kts | 330° |
| 2026-05-04 15:05 | 35.56371 | 139.78555 | 29 ft | 11 kts | 325° |
| 2026-05-04 15:06 | 35.56377 | 139.78462 | 29 ft | 14 kts | 249° |
| 2026-05-04 15:06 | 35.56323 | 139.78344 | 29 ft | 16 kts | 240° |
| 2026-05-04 15:06 | 35.56267 | 139.78227 | 29 ft | 15 kts | 239° |
| 2026-05-04 15:07 | 35.56199 | 139.78068 | 29 ft | 9 kts | 251° |
| 2026-05-04 15:07 | 35.56160 | 139.77981 | 29 ft | 15 kts | 239° |
| 2026-05-04 15:07 | 35.56095 | 139.77856 | 30 ft | 19 kts | 235° |
| 2026-05-04 15:07 | 35.56032 | 139.77728 | 30 ft | 19 kts | 239° |
| 2026-05-04 15:08 | 35.55980 | 139.77621 | 30 ft | 13 kts | 240° |
| 2026-05-04 15:08 | 35.55933 | 139.77522 | 29 ft | 13 kts | 239° |
| 2026-05-04 15:08 | 35.55888 | 139.77427 | 29 ft | 13 kts | 239° |
| 2026-05-04 15:08 | 35.55839 | 139.77336 | 29 ft | 14 kts | 223° |
| 2026-05-04 15:09 | 35.55744 | 139.77254 | 29 ft | 15 kts | 214° |
| 2026-05-04 15:09 | 35.55664 | 139.77185 | 31 ft | 17 kts | 214° |
| 2026-05-04 15:09 | 35.55565 | 139.77101 | 30 ft | 11 kts | 215° |
| 2026-05-04 15:10 | 35.55397 | 139.77076 | 29 ft | 19 kts | 150° |
| 2026-05-04 15:10 | 35.55260 | 139.77175 | 29 ft | 26 kts | 150° |
| 2026-05-04 15:10 | 35.55004 | 139.77356 | 29 ft | 17 kts | 151° |
| 2026-05-04 15:11 | 35.54919 | 139.77416 | 29 ft | 9 kts | 152° |
| 2026-05-04 15:11 | 35.54867 | 139.77403 | 16 ft | 7 kts | 244° |
| 2026-05-04 15:11 | 35.54845 | 139.77335 | 34 ft | 10 kts | 243° |
| 2026-05-04 15:11 | 35.54804 | 139.77248 | 29 ft | 13 kts | 240° |
| 2026-05-04 15:12 | 35.54753 | 139.77138 | 29 ft | 15 kts | 239° |
| 2026-05-04 15:12 | 35.54686 | 139.77090 | 29 ft | 13 kts | 184° |
| 2026-05-04 15:12 | 35.54613 | 139.77133 | 29 ft | 9 kts | 149° |
| 2026-05-04 15:12 | 35.54585 | 139.77147 | 29 ft | 3 kts | 179° |
| 2026-05-04 15:13 | 35.54565 | 139.77132 | 29 ft | 4 kts | 221° |
| 2026-05-04 15:13 | 35.54542 | 139.77092 | 29 ft | 0 kts | 237° |
| 2026-05-04 15:13 | 35.54535 | 139.77078 | 29 ft | 2 kts | 238° |
| 2026-05-04 15:14 | 35.54531 | 139.77070 | 29 ft | 0 kts | 238° |
| 2026-05-04 15:14 | 35.54531 | 139.77069 | 29 ft | 0 kts | 238° |